sensor_id;sensor_type;location;lat;lon;timestamp;P1;durP1;ratioP1;P2;durP2;ratioP2
47021;SDS011;32779;52.264;6.154;2023-04-08T00:00:15;9.35;;;8.38;;
47021;SDS011;32779;52.264;6.154;2023-04-08T00:02:40;8.93;;;8.02;;
47021;SDS011;32779;52.264;6.154;2023-04-08T00:05:07;9.35;;;8.35;;
47021;SDS011;32779;52.264;6.154;2023-04-08T00:07:33;8.85;;;7.95;;
47021;SDS011;32779;52.264;6.154;2023-04-08T00:09:59;8.60;;;7.80;;
47021;SDS011;32779;52.264;6.154;2023-04-08T00:12:24;9.70;;;8.70;;
47021;SDS011;32779;52.264;6.154;2023-04-08T00:14:50;10.15;;;9.15;;
47021;SDS011;32779;52.264;6.154;2023-04-08T00:17:16;10.57;;;8.95;;
47021;SDS011;32779;52.264;6.154;2023-04-08T00:19:42;10.63;;;9.57;;
47021;SDS011;32779;52.264;6.154;2023-04-08T00:22:08;10.48;;;9.35;;
47021;SDS011;32779;52.264;6.154;2023-04-08T00:24:34;10.73;;;9.43;;
47021;SDS011;32779;52.264;6.154;2023-04-08T00:27:00;10.50;;;9.35;;
47021;SDS011;32779;52.264;6.154;2023-04-08T00:29:26;11.65;;;9.80;;
47021;SDS011;32779;52.264;6.154;2023-04-08T00:31:52;11.30;;;10.10;;
47021;SDS011;32779;52.264;6.154;2023-04-08T00:34:18;12.20;;;10.18;;
47021;SDS011;32779;52.264;6.154;2023-04-08T00:36:44;12.50;;;10.20;;
47021;SDS011;32779;52.264;6.154;2023-04-08T00:39:12;11.57;;;10.13;;
47021;SDS011;32779;52.264;6.154;2023-04-08T00:41:38;13.65;;;11.00;;
47021;SDS011;32779;52.264;6.154;2023-04-08T00:44:04;15.43;;;11.48;;
47021;SDS011;32779;52.264;6.154;2023-04-08T00:46:30;18.60;;;13.05;;
47021;SDS011;32779;52.264;6.154;2023-04-08T00:49:00;18.67;;;14.65;;
47021;SDS011;32779;52.264;6.154;2023-04-08T00:53:53;19.10;;;14.77;;
47021;SDS011;32779;52.264;6.154;2023-04-08T00:58:45;18.45;;;14.55;;
47021;SDS011;32779;52.264;6.154;2023-04-08T01:01:12;17.10;;;14.13;;
47021;SDS011;32779;52.264;6.154;2023-04-08T01:03:49;18.25;;;14.30;;
47021;SDS011;32779;52.264;6.154;2023-04-08T01:08:55;22.42;;;15.23;;
47021;SDS011;32779;52.264;6.154;2023-04-08T01:11:23;17.25;;;13.52;;
47021;SDS011;32779;52.264;6.154;2023-04-08T01:13:49;19.08;;;14.18;;
47021;SDS011;32779;52.264;6.154;2023-04-08T01:16:19;17.77;;;13.65;;
47021;SDS011;32779;52.264;6.154;2023-04-08T01:18:47;20.02;;;15.27;;
47021;SDS011;32779;52.264;6.154;2023-04-08T01:21:15;18.02;;;13.88;;
47021;SDS011;32779;52.264;6.154;2023-04-08T01:23:45;16.67;;;13.80;;
47021;SDS011;32779;52.264;6.154;2023-04-08T01:26:19;17.08;;;13.00;;
47021;SDS011;32779;52.264;6.154;2023-04-08T01:28:48;17.77;;;13.35;;
47021;SDS011;32779;52.264;6.154;2023-04-08T01:31:16;18.83;;;13.63;;
47021;SDS011;32779;52.264;6.154;2023-04-08T01:33:44;16.63;;;13.70;;
47021;SDS011;32779;52.264;6.154;2023-04-08T01:36:10;18.60;;;13.63;;
47021;SDS011;32779;52.264;6.154;2023-04-08T01:38:37;16.90;;;13.20;;
47021;SDS011;32779;52.264;6.154;2023-04-08T01:41:03;18.65;;;14.07;;
47021;SDS011;32779;52.264;6.154;2023-04-08T01:43:30;18.80;;;13.70;;
47021;SDS011;32779;52.264;6.154;2023-04-08T01:45:57;19.17;;;14.65;;
47021;SDS011;32779;52.264;6.154;2023-04-08T01:48:25;17.55;;;14.05;;
47021;SDS011;32779;52.264;6.154;2023-04-08T01:50:52;19.23;;;14.07;;
47021;SDS011;32779;52.264;6.154;2023-04-08T01:53:20;18.10;;;13.75;;
47021;SDS011;32779;52.264;6.154;2023-04-08T01:55:46;19.20;;;14.25;;
47021;SDS011;32779;52.264;6.154;2023-04-08T01:58:17;19.58;;;14.82;;
47021;SDS011;32779;52.264;6.154;2023-04-08T02:00:45;15.85;;;13.18;;
47021;SDS011;32779;52.264;6.154;2023-04-08T02:05:38;19.42;;;13.77;;
47021;SDS011;32779;52.264;6.154;2023-04-08T02:10:30;17.55;;;13.18;;
47021;SDS011;32779;52.264;6.154;2023-04-08T02:12:56;16.23;;;12.80;;
47021;SDS011;32779;52.264;6.154;2023-04-08T02:15:21;19.20;;;13.88;;
47021;SDS011;32779;52.264;6.154;2023-04-08T02:17:52;17.45;;;13.88;;
47021;SDS011;32779;52.264;6.154;2023-04-08T02:25:43;17.77;;;13.40;;
47021;SDS011;32779;52.264;6.154;2023-04-08T02:28:11;19.63;;;14.98;;
47021;SDS011;32779;52.264;6.154;2023-04-08T02:30:40;18.02;;;13.68;;
47021;SDS011;32779;52.264;6.154;2023-04-08T02:33:07;20.02;;;14.52;;
47021;SDS011;32779;52.264;6.154;2023-04-08T02:35:34;17.55;;;13.93;;
47021;SDS011;32779;52.264;6.154;2023-04-08T02:38:00;18.00;;;13.07;;
47021;SDS011;32779;52.264;6.154;2023-04-08T02:40:27;18.63;;;14.32;;
47021;SDS011;32779;52.264;6.154;2023-04-08T02:42:57;20.88;;;13.75;;
47021;SDS011;32779;52.264;6.154;2023-04-08T02:45:29;18.40;;;13.90;;
47021;SDS011;32779;52.264;6.154;2023-04-08T02:47:57;16.73;;;13.10;;
47021;SDS011;32779;52.264;6.154;2023-04-08T02:50:24;19.00;;;13.00;;
47021;SDS011;32779;52.264;6.154;2023-04-08T02:52:49;16.77;;;12.80;;
47021;SDS011;32779;52.264;6.154;2023-04-08T02:55:15;22.15;;;13.73;;
47021;SDS011;32779;52.264;6.154;2023-04-08T02:57:41;17.02;;;13.15;;
47021;SDS011;32779;52.264;6.154;2023-04-08T03:00:07;16.73;;;12.85;;
47021;SDS011;32779;52.264;6.154;2023-04-08T03:02:33;16.67;;;12.60;;
47021;SDS011;32779;52.264;6.154;2023-04-08T03:04:59;17.95;;;13.27;;
47021;SDS011;32779;52.264;6.154;2023-04-08T03:07:25;19.35;;;13.70;;
47021;SDS011;32779;52.264;6.154;2023-04-08T03:09:51;17.27;;;12.93;;
47021;SDS011;32779;52.264;6.154;2023-04-08T03:12:16;17.75;;;13.20;;
47021;SDS011;32779;52.264;6.154;2023-04-08T03:14:42;18.23;;;13.27;;
47021;SDS011;32779;52.264;6.154;2023-04-08T03:17:07;18.15;;;12.65;;
47021;SDS011;32779;52.264;6.154;2023-04-08T03:19:33;17.38;;;13.38;;
47021;SDS011;32779;52.264;6.154;2023-04-08T03:21:58;18.02;;;13.02;;
47021;SDS011;32779;52.264;6.154;2023-04-08T03:24:24;18.40;;;13.70;;
47021;SDS011;32779;52.264;6.154;2023-04-08T03:26:50;16.15;;;12.10;;
47021;SDS011;32779;52.264;6.154;2023-04-08T03:29:15;18.92;;;13.95;;
47021;SDS011;32779;52.264;6.154;2023-04-08T03:31:41;20.63;;;14.02;;
47021;SDS011;32779;52.264;6.154;2023-04-08T03:34:06;22.10;;;14.52;;
47021;SDS011;32779;52.264;6.154;2023-04-08T03:36:32;17.77;;;13.52;;
47021;SDS011;32779;52.264;6.154;2023-04-08T03:38:57;16.50;;;13.05;;
47021;SDS011;32779;52.264;6.154;2023-04-08T03:41:23;18.60;;;13.02;;
47021;SDS011;32779;52.264;6.154;2023-04-08T03:43:48;18.40;;;14.15;;
47021;SDS011;32779;52.264;6.154;2023-04-08T03:46:14;16.85;;;12.55;;
47021;SDS011;32779;52.264;6.154;2023-04-08T03:48:40;19.60;;;14.27;;
47021;SDS011;32779;52.264;6.154;2023-04-08T03:51:05;22.88;;;14.60;;
47021;SDS011;32779;52.264;6.154;2023-04-08T03:53:31;19.50;;;14.82;;
47021;SDS011;32779;52.264;6.154;2023-04-08T03:55:56;18.90;;;13.52;;
47021;SDS011;32779;52.264;6.154;2023-04-08T03:58:23;17.13;;;13.40;;
47021;SDS011;32779;52.264;6.154;2023-04-08T04:00:49;19.67;;;14.23;;
47021;SDS011;32779;52.264;6.154;2023-04-08T04:03:15;20.23;;;13.52;;
47021;SDS011;32779;52.264;6.154;2023-04-08T04:05:41;18.05;;;13.30;;
47021;SDS011;32779;52.264;6.154;2023-04-08T04:08:06;17.92;;;13.18;;
47021;SDS011;32779;52.264;6.154;2023-04-08T04:10:33;17.63;;;12.80;;
47021;SDS011;32779;52.264;6.154;2023-04-08T04:12:59;18.35;;;13.45;;
47021;SDS011;32779;52.264;6.154;2023-04-08T04:15:25;17.45;;;13.32;;
47021;SDS011;32779;52.264;6.154;2023-04-08T04:17:50;16.92;;;12.57;;
47021;SDS011;32779;52.264;6.154;2023-04-08T04:20:16;19.27;;;13.30;;
47021;SDS011;32779;52.264;6.154;2023-04-08T04:25:08;19.48;;;13.48;;
47021;SDS011;32779;52.264;6.154;2023-04-08T04:27:34;16.85;;;13.38;;
47021;SDS011;32779;52.264;6.154;2023-04-08T04:30:03;17.83;;;12.70;;
47021;SDS011;32779;52.264;6.154;2023-04-08T04:32:29;16.73;;;12.57;;
47021;SDS011;32779;52.264;6.154;2023-04-08T04:34:55;17.00;;;13.07;;
47021;SDS011;32779;52.264;6.154;2023-04-08T04:37:20;19.83;;;12.05;;
47021;SDS011;32779;52.264;6.154;2023-04-08T04:39:46;15.48;;;11.63;;
47021;SDS011;32779;52.264;6.154;2023-04-08T04:42:12;16.15;;;11.90;;
47021;SDS011;32779;52.264;6.154;2023-04-08T04:44:37;16.58;;;11.35;;
47021;SDS011;32779;52.264;6.154;2023-04-08T04:47:03;16.95;;;11.85;;
47021;SDS011;32779;52.264;6.154;2023-04-08T04:49:28;15.63;;;11.40;;
47021;SDS011;32779;52.264;6.154;2023-04-08T04:51:54;15.80;;;11.63;;
47021;SDS011;32779;52.264;6.154;2023-04-08T04:54:20;15.63;;;11.13;;
47021;SDS011;32779;52.264;6.154;2023-04-08T04:56:45;17.90;;;10.90;;
47021;SDS011;32779;52.264;6.154;2023-04-08T04:59:11;18.43;;;12.50;;
47021;SDS011;32779;52.264;6.154;2023-04-08T05:01:36;17.45;;;12.40;;
47021;SDS011;32779;52.264;6.154;2023-04-08T05:04:04;17.10;;;11.23;;
47021;SDS011;32779;52.264;6.154;2023-04-08T05:06:30;16.17;;;11.77;;
47021;SDS011;32779;52.264;6.154;2023-04-08T05:08:56;15.82;;;12.27;;
47021;SDS011;32779;52.264;6.154;2023-04-08T05:11:22;16.98;;;12.07;;
47021;SDS011;32779;52.264;6.154;2023-04-08T05:13:47;16.48;;;11.98;;
47021;SDS011;32779;52.264;6.154;2023-04-08T05:16:13;18.83;;;12.52;;
47021;SDS011;32779;52.264;6.154;2023-04-08T05:18:38;18.08;;;12.60;;
47021;SDS011;32779;52.264;6.154;2023-04-08T05:21:04;21.10;;;13.13;;
47021;SDS011;32779;52.264;6.154;2023-04-08T05:23:30;18.52;;;12.73;;
47021;SDS011;32779;52.264;6.154;2023-04-08T05:25:55;20.75;;;12.80;;
47021;SDS011;32779;52.264;6.154;2023-04-08T05:28:21;17.63;;;12.52;;
47021;SDS011;32779;52.264;6.154;2023-04-08T05:30:50;18.90;;;11.93;;
47021;SDS011;32779;52.264;6.154;2023-04-08T05:33:16;20.90;;;13.20;;
47021;SDS011;32779;52.264;6.154;2023-04-08T05:38:08;18.75;;;12.38;;
47021;SDS011;32779;52.264;6.154;2023-04-08T05:40:33;19.55;;;12.55;;
47021;SDS011;32779;52.264;6.154;2023-04-08T05:42:59;17.38;;;11.90;;
47021;SDS011;32779;52.264;6.154;2023-04-08T05:45:26;19.63;;;12.20;;
47021;SDS011;32779;52.264;6.154;2023-04-08T05:47:52;18.52;;;11.88;;
47021;SDS011;32779;52.264;6.154;2023-04-08T05:50:18;19.83;;;12.40;;
47021;SDS011;32779;52.264;6.154;2023-04-08T05:52:43;16.95;;;12.93;;
47021;SDS011;32779;52.264;6.154;2023-04-08T05:55:09;16.83;;;12.07;;
47021;SDS011;32779;52.264;6.154;2023-04-08T05:57:36;18.73;;;12.05;;
47021;SDS011;32779;52.264;6.154;2023-04-08T06:00:03;20.02;;;12.75;;
47021;SDS011;32779;52.264;6.154;2023-04-08T06:02:30;19.63;;;12.88;;
47021;SDS011;32779;52.264;6.154;2023-04-08T06:04:55;17.98;;;11.52;;
47021;SDS011;32779;52.264;6.154;2023-04-08T06:07:21;19.15;;;12.50;;
47021;SDS011;32779;52.264;6.154;2023-04-08T06:09:47;18.77;;;12.43;;
47021;SDS011;32779;52.264;6.154;2023-04-08T06:12:12;20.67;;;13.15;;
47021;SDS011;32779;52.264;6.154;2023-04-08T06:14:38;18.27;;;12.50;;
47021;SDS011;32779;52.264;6.154;2023-04-08T06:17:03;18.00;;;12.48;;
47021;SDS011;32779;52.264;6.154;2023-04-08T06:19:29;17.00;;;12.52;;
47021;SDS011;32779;52.264;6.154;2023-04-08T06:21:54;18.27;;;12.33;;
47021;SDS011;32779;52.264;6.154;2023-04-08T06:24:23;17.75;;;11.98;;
47021;SDS011;32779;52.264;6.154;2023-04-08T06:26:50;19.17;;;12.45;;
47021;SDS011;32779;52.264;6.154;2023-04-08T06:29:17;19.42;;;13.32;;
47021;SDS011;32779;52.264;6.154;2023-04-08T06:31:42;18.38;;;12.77;;
47021;SDS011;32779;52.264;6.154;2023-04-08T06:34:08;22.50;;;11.85;;
47021;SDS011;32779;52.264;6.154;2023-04-08T06:36:34;17.15;;;12.40;;
47021;SDS011;32779;52.264;6.154;2023-04-08T06:39:01;19.85;;;12.05;;
47021;SDS011;32779;52.264;6.154;2023-04-08T06:41:27;18.08;;;11.82;;
47021;SDS011;32779;52.264;6.154;2023-04-08T06:43:53;21.77;;;12.55;;
47021;SDS011;32779;52.264;6.154;2023-04-08T06:46:18;17.02;;;11.82;;
47021;SDS011;32779;52.264;6.154;2023-04-08T06:48:44;16.83;;;11.70;;
47021;SDS011;32779;52.264;6.154;2023-04-08T06:51:10;17.88;;;12.23;;
47021;SDS011;32779;52.264;6.154;2023-04-08T06:53:36;24.30;;;12.43;;
47021;SDS011;32779;52.264;6.154;2023-04-08T06:56:01;21.35;;;12.25;;
47021;SDS011;32779;52.264;6.154;2023-04-08T06:58:27;13.82;;;11.07;;
47021;SDS011;32779;52.264;6.154;2023-04-08T07:00:54;15.68;;;11.73;;
47021;SDS011;32779;52.264;6.154;2023-04-08T07:05:46;20.58;;;12.13;;
47021;SDS011;32779;52.264;6.154;2023-04-08T07:08:11;17.95;;;11.85;;
47021;SDS011;32779;52.264;6.154;2023-04-08T07:10:37;18.73;;;12.68;;
47021;SDS011;32779;52.264;6.154;2023-04-08T07:13:03;18.13;;;12.35;;
47021;SDS011;32779;52.264;6.154;2023-04-08T07:15:28;18.77;;;13.13;;
47021;SDS011;32779;52.264;6.154;2023-04-08T07:17:54;18.98;;;12.82;;
47021;SDS011;32779;52.264;6.154;2023-04-08T07:20:23;16.73;;;11.85;;
47021;SDS011;32779;52.264;6.154;2023-04-08T07:25:15;16.58;;;12.20;;
47021;SDS011;32779;52.264;6.154;2023-04-08T07:27:42;21.63;;;13.02;;
47021;SDS011;32779;52.264;6.154;2023-04-08T07:30:07;22.45;;;13.60;;
47021;SDS011;32779;52.264;6.154;2023-04-08T07:32:33;21.33;;;14.77;;
47021;SDS011;32779;52.264;6.154;2023-04-08T07:35:00;21.77;;;13.55;;
47021;SDS011;32779;52.264;6.154;2023-04-08T07:37:26;18.10;;;11.95;;
47021;SDS011;32779;52.264;6.154;2023-04-08T07:39:52;14.15;;;10.85;;
47021;SDS011;32779;52.264;6.154;2023-04-08T07:42:17;15.85;;;10.52;;
47021;SDS011;32779;52.264;6.154;2023-04-08T07:44:44;14.93;;;10.13;;
47021;SDS011;32779;52.264;6.154;2023-04-08T07:47:10;14.80;;;10.00;;
47021;SDS011;32779;52.264;6.154;2023-04-08T07:49:36;14.98;;;10.05;;
47021;SDS011;32779;52.264;6.154;2023-04-08T07:54:29;15.60;;;10.02;;
47021;SDS011;32779;52.264;6.154;2023-04-08T07:56:55;14.13;;;10.77;;
47021;SDS011;32779;52.264;6.154;2023-04-08T07:59:21;18.60;;;11.82;;
47021;SDS011;32779;52.264;6.154;2023-04-08T08:01:46;18.63;;;12.15;;
47021;SDS011;32779;52.264;6.154;2023-04-08T08:04:12;13.57;;;9.98;;
47021;SDS011;32779;52.264;6.154;2023-04-08T08:06:37;15.18;;;10.00;;
47021;SDS011;32779;52.264;6.154;2023-04-08T08:09:03;18.58;;;10.75;;
47021;SDS011;32779;52.264;6.154;2023-04-08T08:11:29;16.10;;;10.07;;
47021;SDS011;32779;52.264;6.154;2023-04-08T08:13:55;14.35;;;10.52;;
47021;SDS011;32779;52.264;6.154;2023-04-08T08:16:20;11.32;;;9.50;;
47021;SDS011;32779;52.264;6.154;2023-04-08T08:18:46;13.85;;;10.35;;
47021;SDS011;32779;52.264;6.154;2023-04-08T08:21:12;15.43;;;10.25;;
47021;SDS011;32779;52.264;6.154;2023-04-08T08:23:37;14.23;;;10.68;;
47021;SDS011;32779;52.264;6.154;2023-04-08T08:26:04;13.65;;;10.35;;
47021;SDS011;32779;52.264;6.154;2023-04-08T08:28:33;16.05;;;10.98;;
47021;SDS011;32779;52.264;6.154;2023-04-08T08:30:59;13.40;;;10.02;;
47021;SDS011;32779;52.264;6.154;2023-04-08T08:33:25;14.93;;;10.82;;
47021;SDS011;32779;52.264;6.154;2023-04-08T08:35:50;14.07;;;10.85;;
47021;SDS011;32779;52.264;6.154;2023-04-08T08:38:16;15.23;;;11.20;;
47021;SDS011;32779;52.264;6.154;2023-04-08T08:43:09;12.60;;;10.20;;
47021;SDS011;32779;52.264;6.154;2023-04-08T08:48:06;15.35;;;9.82;;
47021;SDS011;32779;52.264;6.154;2023-04-08T08:50:33;14.23;;;10.10;;
47021;SDS011;32779;52.264;6.154;2023-04-08T08:52:59;19.08;;;10.65;;
47021;SDS011;32779;52.264;6.154;2023-04-08T08:55:25;16.90;;;11.05;;
47021;SDS011;32779;52.264;6.154;2023-04-08T08:57:53;14.68;;;10.90;;
47021;SDS011;32779;52.264;6.154;2023-04-08T09:00:29;14.88;;;10.32;;
47021;SDS011;32779;52.264;6.154;2023-04-08T09:02:56;13.60;;;10.20;;
47021;SDS011;32779;52.264;6.154;2023-04-08T09:05:58;14.75;;;10.45;;
47021;SDS011;32779;52.264;6.154;2023-04-08T09:08:32;14.35;;;10.25;;
47021;SDS011;32779;52.264;6.154;2023-04-08T09:13:40;13.20;;;9.45;;
47021;SDS011;32779;52.264;6.154;2023-04-08T09:16:07;14.40;;;9.73;;
47021;SDS011;32779;52.264;6.154;2023-04-08T09:18:34;14.48;;;9.57;;
47021;SDS011;32779;52.264;6.154;2023-04-08T09:21:04;12.38;;;9.25;;
47021;SDS011;32779;52.264;6.154;2023-04-08T09:23:41;13.50;;;9.07;;
47021;SDS011;32779;52.264;6.154;2023-04-08T09:26:14;10.98;;;8.25;;
47021;SDS011;32779;52.264;6.154;2023-04-08T09:28:42;10.55;;;8.63;;
47021;SDS011;32779;52.264;6.154;2023-04-08T09:31:18;11.45;;;8.93;;
47021;SDS011;32779;52.264;6.154;2023-04-08T09:33:48;11.95;;;8.85;;
47021;SDS011;32779;52.264;6.154;2023-04-08T09:36:16;10.45;;;7.85;;
47021;SDS011;32779;52.264;6.154;2023-04-08T09:38:42;12.07;;;8.20;;
47021;SDS011;32779;52.264;6.154;2023-04-08T09:41:08;12.27;;;8.95;;
47021;SDS011;32779;52.264;6.154;2023-04-08T09:43:43;13.13;;;8.77;;
47021;SDS011;32779;52.264;6.154;2023-04-08T09:46:16;13.32;;;8.23;;
47021;SDS011;32779;52.264;6.154;2023-04-08T09:49:05;14.55;;;8.75;;
47021;SDS011;32779;52.264;6.154;2023-04-08T09:51:44;10.65;;;7.97;;
47021;SDS011;32779;52.264;6.154;2023-04-08T09:54:52;11.75;;;8.32;;
47021;SDS011;32779;52.264;6.154;2023-04-08T10:02:54;11.07;;;7.85;;
47021;SDS011;32779;52.264;6.154;2023-04-08T10:05:27;12.18;;;8.00;;
47021;SDS011;32779;52.264;6.154;2023-04-08T10:07:57;10.73;;;7.28;;
47021;SDS011;32779;52.264;6.154;2023-04-08T10:10:23;12.98;;;8.05;;
47021;SDS011;32779;52.264;6.154;2023-04-08T10:15:28;10.52;;;8.48;;
47021;SDS011;32779;52.264;6.154;2023-04-08T10:17:55;9.80;;;8.25;;
47021;SDS011;32779;52.264;6.154;2023-04-08T10:23:03;10.23;;;7.72;;
47021;SDS011;32779;52.264;6.154;2023-04-08T10:27:56;8.18;;;7.10;;
47021;SDS011;32779;52.264;6.154;2023-04-08T10:32:57;9.65;;;7.85;;
47021;SDS011;32779;52.264;6.154;2023-04-08T10:35:37;10.75;;;8.43;;
47021;SDS011;32779;52.264;6.154;2023-04-08T10:38:06;8.50;;;7.20;;
47021;SDS011;32779;52.264;6.154;2023-04-08T10:40:36;10.90;;;7.38;;
47021;SDS011;32779;52.264;6.154;2023-04-08T10:43:03;9.98;;;7.22;;
47021;SDS011;32779;52.264;6.154;2023-04-08T10:45:29;10.35;;;8.10;;
47021;SDS011;32779;52.264;6.154;2023-04-08T10:47:55;12.02;;;8.35;;
47021;SDS011;32779;52.264;6.154;2023-04-08T10:50:21;11.85;;;8.20;;
47021;SDS011;32779;52.264;6.154;2023-04-08T10:52:50;9.70;;;7.72;;
47021;SDS011;32779;52.264;6.154;2023-04-08T10:55:23;9.32;;;7.85;;
47021;SDS011;32779;52.264;6.154;2023-04-08T10:57:50;9.80;;;7.93;;
47021;SDS011;32779;52.264;6.154;2023-04-08T11:00:17;11.35;;;8.15;;
47021;SDS011;32779;52.264;6.154;2023-04-08T11:02:43;11.75;;;8.70;;
47021;SDS011;32779;52.264;6.154;2023-04-08T11:07:41;15.93;;;9.23;;
47021;SDS011;32779;52.264;6.154;2023-04-08T11:10:08;11.98;;;9.55;;
47021;SDS011;32779;52.264;6.154;2023-04-08T11:12:34;11.82;;;9.75;;
47021;SDS011;32779;52.264;6.154;2023-04-08T11:15:02;11.98;;;9.15;;
47021;SDS011;32779;52.264;6.154;2023-04-08T11:17:29;12.90;;;9.13;;
47021;SDS011;32779;52.264;6.154;2023-04-08T11:19:55;13.48;;;9.55;;
47021;SDS011;32779;52.264;6.154;2023-04-08T11:22:26;14.35;;;10.45;;
47021;SDS011;32779;52.264;6.154;2023-04-08T11:24:52;11.73;;;10.05;;
47021;SDS011;32779;52.264;6.154;2023-04-08T11:27:20;13.15;;;10.43;;
47021;SDS011;32779;52.264;6.154;2023-04-08T11:29:49;13.43;;;10.40;;
47021;SDS011;32779;52.264;6.154;2023-04-08T11:32:20;16.25;;;10.63;;
47021;SDS011;32779;52.264;6.154;2023-04-08T11:34:47;13.18;;;10.50;;
47021;SDS011;32779;52.264;6.154;2023-04-08T11:37:17;12.18;;;10.57;;
47021;SDS011;32779;52.264;6.154;2023-04-08T11:39:43;13.98;;;11.88;;
47021;SDS011;32779;52.264;6.154;2023-04-08T11:42:24;15.95;;;11.70;;
47021;SDS011;32779;52.264;6.154;2023-04-08T11:44:54;20.55;;;12.55;;
47021;SDS011;32779;52.264;6.154;2023-04-08T11:47:20;14.93;;;11.98;;
47021;SDS011;32779;52.264;6.154;2023-04-08T11:49:46;15.43;;;11.25;;
47021;SDS011;32779;52.264;6.154;2023-04-08T11:52:12;19.58;;;12.63;;
47021;SDS011;32779;52.264;6.154;2023-04-08T11:54:41;18.23;;;12.07;;
47021;SDS011;32779;52.264;6.154;2023-04-08T11:57:07;15.63;;;12.02;;
47021;SDS011;32779;52.264;6.154;2023-04-08T11:59:37;18.33;;;12.80;;
47021;SDS011;32779;52.264;6.154;2023-04-08T12:02:03;19.52;;;13.57;;
47021;SDS011;32779;52.264;6.154;2023-04-08T12:04:28;16.70;;;13.25;;
47021;SDS011;32779;52.264;6.154;2023-04-08T12:06:54;16.63;;;12.80;;
47021;SDS011;32779;52.264;6.154;2023-04-08T12:09:20;18.05;;;13.25;;
47021;SDS011;32779;52.264;6.154;2023-04-08T12:11:46;18.25;;;14.32;;
47021;SDS011;32779;52.264;6.154;2023-04-08T12:14:11;17.00;;;13.48;;
47021;SDS011;32779;52.264;6.154;2023-04-08T12:16:37;17.90;;;13.50;;
47021;SDS011;32779;52.264;6.154;2023-04-08T12:19:03;22.23;;;12.90;;
47021;SDS011;32779;52.264;6.154;2023-04-08T12:21:28;24.40;;;14.95;;
47021;SDS011;32779;52.264;6.154;2023-04-08T12:23:54;17.30;;;13.38;;
47021;SDS011;32779;52.264;6.154;2023-04-08T12:26:20;18.55;;;14.02;;
47021;SDS011;32779;52.264;6.154;2023-04-08T12:28:45;23.50;;;14.02;;
47021;SDS011;32779;52.264;6.154;2023-04-08T12:31:11;22.25;;;13.43;;
47021;SDS011;32779;52.264;6.154;2023-04-08T12:33:36;21.42;;;13.82;;
47021;SDS011;32779;52.264;6.154;2023-04-08T12:36:02;18.65;;;14.07;;
47021;SDS011;32779;52.264;6.154;2023-04-08T12:38:28;20.73;;;13.85;;
47021;SDS011;32779;52.264;6.154;2023-04-08T12:40:54;18.58;;;14.20;;
47021;SDS011;32779;52.264;6.154;2023-04-08T12:43:20;18.40;;;13.20;;
47021;SDS011;32779;52.264;6.154;2023-04-08T12:45:47;18.52;;;13.82;;
47021;SDS011;32779;52.264;6.154;2023-04-08T12:48:13;17.27;;;14.40;;
47021;SDS011;32779;52.264;6.154;2023-04-08T12:53:04;17.90;;;13.18;;
47021;SDS011;32779;52.264;6.154;2023-04-08T12:55:30;18.77;;;14.05;;
47021;SDS011;32779;52.264;6.154;2023-04-08T12:57:56;17.95;;;13.70;;
47021;SDS011;32779;52.264;6.154;2023-04-08T13:00:22;19.67;;;13.50;;
47021;SDS011;32779;52.264;6.154;2023-04-08T13:02:48;17.90;;;13.57;;
47021;SDS011;32779;52.264;6.154;2023-04-08T13:05:13;18.38;;;12.65;;
47021;SDS011;32779;52.264;6.154;2023-04-08T13:07:39;19.67;;;14.23;;
47021;SDS011;32779;52.264;6.154;2023-04-08T13:12:31;21.48;;;13.70;;
47021;SDS011;32779;52.264;6.154;2023-04-08T13:17:24;17.70;;;12.50;;
47021;SDS011;32779;52.264;6.154;2023-04-08T13:19:49;14.52;;;12.00;;
47021;SDS011;32779;52.264;6.154;2023-04-08T13:22:15;16.65;;;12.90;;
47021;SDS011;32779;52.264;6.154;2023-04-08T13:24:41;18.23;;;12.25;;
47021;SDS011;32779;52.264;6.154;2023-04-08T13:27:06;16.90;;;12.45;;
47021;SDS011;32779;52.264;6.154;2023-04-08T13:29:32;17.45;;;12.95;;
47021;SDS011;32779;52.264;6.154;2023-04-08T13:31:58;16.95;;;12.68;;
47021;SDS011;32779;52.264;6.154;2023-04-08T13:34:25;16.50;;;11.95;;
47021;SDS011;32779;52.264;6.154;2023-04-08T13:36:51;15.52;;;12.55;;
47021;SDS011;32779;52.264;6.154;2023-04-08T13:39:16;16.83;;;12.25;;
47021;SDS011;32779;52.264;6.154;2023-04-08T13:41:42;16.10;;;13.00;;
47021;SDS011;32779;52.264;6.154;2023-04-08T13:44:07;17.63;;;13.02;;
47021;SDS011;32779;52.264;6.154;2023-04-08T13:46:33;16.85;;;12.80;;
47021;SDS011;32779;52.264;6.154;2023-04-08T13:48:58;16.05;;;13.10;;
47021;SDS011;32779;52.264;6.154;2023-04-08T13:51:24;17.25;;;13.32;;
47021;SDS011;32779;52.264;6.154;2023-04-08T13:53:51;16.33;;;12.88;;
47021;SDS011;32779;52.264;6.154;2023-04-08T13:56:16;16.73;;;12.63;;
47021;SDS011;32779;52.264;6.154;2023-04-08T13:58:42;17.88;;;13.40;;
47021;SDS011;32779;52.264;6.154;2023-04-08T14:01:07;17.38;;;13.07;;
47021;SDS011;32779;52.264;6.154;2023-04-08T14:03:33;16.80;;;13.15;;
47021;SDS011;32779;52.264;6.154;2023-04-08T14:05:58;15.60;;;12.95;;
47021;SDS011;32779;52.264;6.154;2023-04-08T14:08:25;15.02;;;12.48;;
47021;SDS011;32779;52.264;6.154;2023-04-08T14:10:50;18.08;;;13.07;;
47021;SDS011;32779;52.264;6.154;2023-04-08T14:15:42;17.15;;;12.68;;
47021;SDS011;32779;52.264;6.154;2023-04-08T14:18:07;16.40;;;12.80;;
47021;SDS011;32779;52.264;6.154;2023-04-08T14:20:33;17.52;;;13.13;;
47021;SDS011;32779;52.264;6.154;2023-04-08T14:25:25;19.25;;;12.60;;
47021;SDS011;32779;52.264;6.154;2023-04-08T14:27:51;14.38;;;11.80;;
47021;SDS011;32779;52.264;6.154;2023-04-08T14:30:17;14.13;;;12.02;;
47021;SDS011;32779;52.264;6.154;2023-04-08T14:32:43;14.98;;;11.95;;
47021;SDS011;32779;52.264;6.154;2023-04-08T14:35:08;16.50;;;12.95;;
47021;SDS011;32779;52.264;6.154;2023-04-08T14:37:34;16.02;;;11.73;;
47021;SDS011;32779;52.264;6.154;2023-04-08T14:40:02;16.80;;;11.77;;
47021;SDS011;32779;52.264;6.154;2023-04-08T14:42:28;17.10;;;12.02;;
47021;SDS011;32779;52.264;6.154;2023-04-08T14:44:54;14.35;;;12.10;;
47021;SDS011;32779;52.264;6.154;2023-04-08T14:47:21;17.40;;;12.43;;
47021;SDS011;32779;52.264;6.154;2023-04-08T14:52:13;16.65;;;13.50;;
47021;SDS011;32779;52.264;6.154;2023-04-08T14:54:38;15.00;;;12.52;;
47021;SDS011;32779;52.264;6.154;2023-04-08T14:57:05;15.13;;;12.07;;
47021;SDS011;32779;52.264;6.154;2023-04-08T14:59:31;13.10;;;11.70;;
47021;SDS011;32779;52.264;6.154;2023-04-08T15:04:23;16.38;;;12.43;;
47021;SDS011;32779;52.264;6.154;2023-04-08T15:06:48;16.30;;;11.85;;
47021;SDS011;32779;52.264;6.154;2023-04-08T15:09:14;15.57;;;12.23;;
47021;SDS011;32779;52.264;6.154;2023-04-08T15:11:40;15.40;;;11.82;;
47021;SDS011;32779;52.264;6.154;2023-04-08T15:14:06;14.50;;;11.77;;
47021;SDS011;32779;52.264;6.154;2023-04-08T15:16:31;15.60;;;11.68;;
47021;SDS011;32779;52.264;6.154;2023-04-08T15:18:57;13.20;;;11.77;;
47021;SDS011;32779;52.264;6.154;2023-04-08T15:21:24;16.50;;;12.43;;
47021;SDS011;32779;52.264;6.154;2023-04-08T15:23:50;18.10;;;12.48;;
47021;SDS011;32779;52.264;6.154;2023-04-08T15:26:16;13.27;;;11.85;;
47021;SDS011;32779;52.264;6.154;2023-04-08T15:28:42;16.38;;;12.15;;
47021;SDS011;32779;52.264;6.154;2023-04-08T15:31:08;15.75;;;11.73;;
47021;SDS011;32779;52.264;6.154;2023-04-08T15:33:33;14.75;;;11.77;;